Time;durP1;ratioP1;P1;durP2;ratioP2;P2;SDS_P1;SDS_P2;PMS_P1;PMS_P2;Temp;Humidity;BMP_temperature;BMP_pressure;BME280_temperature;BME280_humidity;BME280_pressure;Samples;Min_cycle;Max_cycle;Signal;HPM_P1;HPM_P2
2021/03/03 00:00:18;;;;;;;40.47;21.40;;;;;;;;;;4391411;32;20211;-78
2021/03/03 00:02:44;;;;;;;46.03;21.70;;;;;;;;;;4391362;32;20166;-78
2021/03/03 00:05:12;;;;;;;42.17;22.03;;;;;;;;;;4391456;32;20481;-78
2021/03/03 00:07:37;;;;;;;45.63;21.57;;;;;;;;;;4378289;32;20204;-79
2021/03/03 00:10:03;;;;;;;42.37;21.20;;;;;;;;;;4390958;32;20204;-79
2021/03/03 00:12:29;;;;;;;41.13;22.13;;;;;;;;;;4390729;32;20173;-79
2021/03/03 00:15:02;;;;;;;42.10;21.57;;;;;;;;;;4391320;32;20170;-79
2021/03/03 00:17:27;;;;;;;44.47;22.07;;;;;;;;;;4391354;32;20204;-79
2021/03/03 00:19:52;;;;;;;45.20;22.17;;;;;;;;;;4391386;32;20162;-78
2021/03/03 00:22:22;;;;;;;41.17;21.87;;;;;;;;;;4390681;32;20177;-78
2021/03/03 00:24:51;;;;;;;43.73;21.83;;;;;;;;;;4390985;32;20162;-78
2021/03/03 00:27:18;;;;;;;43.20;22.50;;;;;;;;;;4390766;32;20231;-78
2021/03/03 00:29:56;;;;;;;41.47;20.53;;;;;;;;;;4391002;32;20187;-78
2021/03/03 00:32:27;;;;;;;45.63;21.47;;;;;;;;;;4391044;32;20450;-78
2021/03/03 00:34:52;;;;;;;40.43;22.00;;;;;;;;;;4390650;32;20189;-78
2021/03/03 00:37:26;;;;;;;44.63;22.23;;;;;;;;;;4390694;32;20170;-78
2021/03/03 00:39:52;;;;;;;43.93;21.67;;;;;;;;;;4390986;32;20183;-78
2021/03/03 00:42:20;;;;;;;44.00;21.13;;;;;;;;;;4390993;32;20158;-79
2021/03/03 00:44:54;;;;;;;41.27;20.17;;;;;;;;;;4390746;32;20576;-78
2021/03/03 00:47:22;;;;;;;45.10;21.53;;;;;;;;;;4390818;32;20165;-78
2021/03/03 00:49:50;;;;;;;54.50;24.33;;;;;;;;;;4390664;32;20209;-78
2021/03/03 00:52:15;;;;;;;43.80;21.27;;;;;;;;;;4390513;32;20178;-79
2021/03/03 00:54:40;;;;;;;47.03;23.37;;;;;;;;;;4391250;32;20211;-78
2021/03/03 00:57:06;;;;;;;39.87;21.37;;;;;;;;;;4393493;32;20233;-79
2021/03/03 00:59:31;;;;;;;43.17;21.83;;;;;;;;;;4393301;32;20158;-79
2021/03/03 01:01:56;;;;;;;45.50;20.73;;;;;;;;;;4393353;32;20255;-79
2021/03/03 01:04:22;;;;;;;43.20;20.33;;;;;;;;;;4393175;32;20167;-79
2021/03/03 01:06:47;;;;;;;44.10;20.50;;;;;;;;;;4407531;32;20237;-79
2021/03/03 01:09:12;;;;;;;38.07;19.33;;;;;;;;;;4393190;32;20157;-79
2021/03/03 01:11:38;;;;;;;39.77;19.83;;;;;;;;;;4393490;32;20243;-79
2021/03/03 01:14:03;;;;;;;41.33;20.53;;;;;;;;;;4393172;32;20158;-79
2021/03/03 01:16:29;;;;;;;40.77;20.27;;;;;;;;;;4393331;32;20178;-79
2021/03/03 01:18:56;;;;;;;38.57;19.90;;;;;;;;;;4393131;32;20170;-79
2021/03/03 01:21:22;;;;;;;43.20;21.23;;;;;;;;;;4393237;32;20208;-78
2021/03/03 01:23:50;;;;;;;43.20;22.07;;;;;;;;;;4393279;32;20491;-78
2021/03/03 01:26:15;;;;;;;47.93;23.67;;;;;;;;;;4392800;32;20234;-79
2021/03/03 01:28:45;;;;;;;48.23;21.90;;;;;;;;;;4392859;32;20165;-79
2021/03/03 01:31:11;;;;;;;44.13;21.97;;;;;;;;;;4393149;32;20261;-79
2021/03/03 01:33:39;;;;;;;39.57;21.77;;;;;;;;;;4392972;32;20209;-79
2021/03/03 01:36:04;;;;;;;46.13;22.20;;;;;;;;;;4392750;32;20166;-79
2021/03/03 01:38:30;;;;;;;42.57;21.23;;;;;;;;;;4392649;32;20184;-79
2021/03/03 01:40:55;;;;;;;42.53;20.93;;;;;;;;;;4393327;32;20188;-79
2021/03/03 01:43:23;;;;;;;41.40;21.63;;;;;;;;;;4393048;32;20189;-78
2021/03/03 01:45:49;;;;;;;39.43;20.23;;;;;;;;;;4393068;32;20161;-78
2021/03/03 01:48:17;;;;;;;42.93;20.30;;;;;;;;;;4392723;32;20223;-78
2021/03/03 01:50:45;;;;;;;41.57;20.63;;;;;;;;;;4392792;32;20191;-78
2021/03/03 01:53:10;;;;;;;40.00;21.50;;;;;;;;;;4406751;32;20147;-78
2021/03/03 01:55:38;;;;;;;50.07;23.00;;;;;;;;;;4392575;32;20170;-78
2021/03/03 01:58:04;;;;;;;44.83;22.73;;;;;;;;;;4392491;32;20192;-78
2021/03/03 02:00:30;;;;;;;44.87;22.20;;;;;;;;;;4406474;32;20475;-78
2021/03/03 02:02:55;;;;;;;48.33;22.37;;;;;;;;;;4392921;32;20558;-78
2021/03/03 02:05:20;;;;;;;50.03;23.73;;;;;;;;;;4392383;32;20193;-78
2021/03/03 02:07:55;;;;;;;50.90;23.23;;;;;;;;;;4392349;32;20166;-78
2021/03/03 02:10:41;;;;;;;46.83;23.67;;;;;;;;;;4392496;32;20220;-78
2021/03/03 02:13:24;;;;;;;43.60;21.93;;;;;;;;;;4392668;32;20479;-81
2021/03/03 02:15:59;;;;;;;47.77;23.57;;;;;;;;;;4406485;32;20138;-78
2021/03/03 02:18:25;;;;;;;40.73;21.20;;;;;;;;;;4392412;32;20153;-78
2021/03/03 02:20:53;;;;;;;44.33;22.10;;;;;;;;;;4392155;32;20184;-78
2021/03/03 02:23:27;;;;;;;46.03;21.23;;;;;;;;;;4391901;32;20170;-78
2021/03/03 02:25:53;;;;;;;42.70;21.40;;;;;;;;;;4405939;32;20228;-78
2021/03/03 02:28:19;;;;;;;42.47;21.50;;;;;;;;;;4406772;32;20130;-79
2021/03/03 02:30:45;;;;;;;44.43;20.97;;;;;;;;;;4392406;32;20233;-79
2021/03/03 02:33:13;;;;;;;44.70;21.83;;;;;;;;;;4405634;32;20196;-79
2021/03/03 02:35:39;;;;;;;41.23;20.67;;;;;;;;;;4392012;32;20592;-79
2021/03/03 02:38:05;;;;;;;43.47;20.30;;;;;;;;;;4391891;32;20162;-79
2021/03/03 02:40:30;;;;;;;47.17;21.73;;;;;;;;;;4405598;32;20188;-79
2021/03/03 02:42:56;;;;;;;44.23;21.50;;;;;;;;;;4392123;32;20229;-78
2021/03/03 02:45:23;;;;;;;45.80;22.53;;;;;;;;;;4391769;32;20158;-79
2021/03/03 02:47:49;;;;;;;44.97;21.10;;;;;;;;;;4392186;32;20200;-79
2021/03/03 02:50:14;;;;;;;51.47;23.57;;;;;;;;;;4405784;32;20139;-79
2021/03/03 02:53:06;;;;;;;45.30;21.37;;;;;;;;;;4391858;32;20514;-79
2021/03/03 02:55:31;;;;;;;41.07;21.33;;;;;;;;;;4404168;32;20167;-79
2021/03/03 02:58:00;;;;;;;34.47;18.73;;;;;;;;;;4405595;32;20165;-79
2021/03/03 03:00:30;;;;;;;43.50;19.60;;;;;;;;;;4379448;32;20162;-79
2021/03/03 03:03:00;;;;;;;40.37;19.20;;;;;;;;;;4391588;32;20482;-79
2021/03/03 03:05:27;;;;;;;46.73;21.13;;;;;;;;;;4392417;32;20165;-79
2021/03/03 03:07:55;;;;;;;46.80;22.33;;;;;;;;;;4405539;32;20187;-79
2021/03/03 03:10:22;;;;;;;40.13;19.83;;;;;;;;;;4405484;32;20141;-79
2021/03/03 03:12:49;;;;;;;42.10;20.03;;;;;;;;;;4406008;32;20230;-79
2021/03/03 03:15:16;;;;;;;40.10;20.30;;;;;;;;;;4391401;32;20165;-79
2021/03/03 03:17:46;;;;;;;40.60;20.20;;;;;;;;;;4405633;32;20511;-78
2021/03/03 03:20:13;;;;;;;43.63;19.47;;;;;;;;;;4391560;32;20181;-77
2021/03/03 03:22:39;;;;;;;38.70;19.10;;;;;;;;;;4391476;32;20234;-78
2021/03/03 03:25:05;;;;;;;39.43;19.33;;;;;;;;;;4391807;32;20192;-78
2021/03/03 03:27:31;;;;;;;40.27;18.73;;;;;;;;;;4405247;32;20137;-78
2021/03/03 03:29:58;;;;;;;39.43;18.07;;;;;;;;;;4405285;32;20193;-78
2021/03/03 03:32:24;;;;;;;36.00;17.33;;;;;;;;;;4391131;32;20166;-78
2021/03/03 03:34:50;;;;;;;32.53;17.03;;;;;;;;;;4404958;32;20616;-78
2021/03/03 03:37:18;;;;;;;41.80;19.00;;;;;;;;;;4405589;32;20232;-78
2021/03/03 03:39:43;;;;;;;40.10;19.23;;;;;;;;;;4391501;32;20158;-77
2021/03/03 03:42:13;;;;;;;36.73;18.30;;;;;;;;;;4404847;32;20138;-78
2021/03/03 03:44:39;;;;;;;37.23;17.40;;;;;;;;;;4391481;32;20218;-79
2021/03/03 03:47:04;;;;;;;38.47;17.50;;;;;;;;;;4391901;32;20166;-79
2021/03/03 03:49:30;;;;;;;33.20;17.57;;;;;;;;;;4391035;32;20165;-79
2021/03/03 03:51:58;;;;;;;33.73;17.47;;;;;;;;;;4405756;32;20169;-78
2021/03/03 03:54:23;;;;;;;36.43;18.30;;;;;;;;;;4391034;32;20175;-78
2021/03/03 03:56:49;;;;;;;37.63;18.47;;;;;;;;;;4391213;32;20211;-78
2021/03/03 03:59:14;;;;;;;34.77;17.40;;;;;;;;;;4404988;32;20156;-79
2021/03/03 04:01:39;;;;;;;34.43;17.47;;;;;;;;;;4404946;32;20191;-78
2021/03/03 04:04:04;;;;;;;35.73;18.13;;;;;;;;;;4391213;32;20568;-77
2021/03/03 04:06:33;;;;;;;32.63;16.27;;;;;;;;;;4379856;32;20165;-78
2021/03/03 04:08:58;;;;;;;31.63;17.17;;;;;;;;;;4377088;32;20185;-78
2021/03/03 04:11:23;;;;;;;40.03;19.50;;;;;;;;;;4389850;32;20139;-79
2021/03/03 04:13:48;;;;;;;33.90;17.83;;;;;;;;;;4389840;32;20130;-78
2021/03/03 04:16:14;;;;;;;37.17;19.50;;;;;;;;;;4376241;32;20174;-78
2021/03/03 04:18:39;;;;;;;38.97;19.53;;;;;;;;;;4389960;32;20173;-78
2021/03/03 04:21:04;;;;;;;43.50;19.43;;;;;;;;;;4389521;32;20162;-77
2021/03/03 04:23:30;;;;;;;38.47;18.63;;;;;;;;;;4389190;32;20197;-77
2021/03/03 04:25:55;;;;;;;36.90;17.40;;;;;;;;;;4375310;32;20500;-79
2021/03/03 04:28:20;;;;;;;38.17;18.80;;;;;;;;;;4376081;32;20162;-79
2021/03/03 04:30:46;;;;;;;40.90;20.63;;;;;;;;;;4391869;32;20185;-77
2021/03/03 04:33:13;;;;;;;41.43;21.57;;;;;;;;;;4392265;32;20143;-76
2021/03/03 04:35:38;;;;;;;41.33;20.43;;;;;;;;;;4392492;32;20455;-79
2021/03/03 04:38:03;;;;;;;41.23;20.30;;;;;;;;;;4393052;32;20157;-76
2021/03/03 04:40:28;;;;;;;42.60;20.93;;;;;;;;;;4392235;32;20478;-77
2021/03/03 04:42:54;;;;;;;46.10;21.97;;;;;;;;;;4393074;32;20580;-79
2021/03/03 04:45:19;;;;;;;47.77;23.13;;;;;;;;;;4393282;32;20138;-77
2021/03/03 04:47:44;;;;;;;42.87;21.77;;;;;;;;;;4392937;32;20194;-78
2021/03/03 04:50:10;;;;;;;45.77;23.27;;;;;;;;;;4392615;32;20138;-77
2021/03/03 04:52:36;;;;;;;44.83;23.50;;;;;;;;;;4392554;32;20281;-79
2021/03/03 04:55:01;;;;;;;49.63;24.97;;;;;;;;;;4392728;32;20524;-75
2021/03/03 04:57:27;;;;;;;47.90;24.63;;;;;;;;;;4378306;32;20224;-78
2021/03/03 04:59:52;;;;;;;52.73;25.20;;;;;;;;;;4378292;32;20221;-77
2021/03/03 05:02:18;;;;;;;48.27;24.77;;;;;;;;;;4392392;32;20142;-78
2021/03/03 05:04:46;;;;;;;51.13;25.77;;;;;;;;;;4378123;32;20169;-78
2021/03/03 05:07:14;;;;;;;45.63;24.70;;;;;;;;;;4378549;32;20174;-78
2021/03/03 05:09:39;;;;;;;56.50;26.30;;;;;;;;;;4378423;32;20186;-76
2021/03/03 05:12:05;;;;;;;55.70;28.33;;;;;;;;;;4377932;32;20232;-79
2021/03/03 05:14:30;;;;;;;51.40;27.17;;;;;;;;;;4377887;32;20170;-80
2021/03/03 05:16:55;;;;;;;51.53;25.73;;;;;;;;;;4392127;32;20164;-79
2021/03/03 05:19:20;;;;;;;50.43;26.80;;;;;;;;;;4378598;32;20325;-78
2021/03/03 05:21:45;;;;;;;48.33;25.80;;;;;;;;;;4391508;32;20613;-78
2021/03/03 05:24:11;;;;;;;49.87;25.40;;;;;;;;;;4388503;32;20170;-77
2021/03/03 05:26:36;;;;;;;53.60;27.03;;;;;;;;;;4391429;32;20194;-78
2021/03/03 05:29:02;;;;;;;53.63;27.67;;;;;;;;;;4391504;32;20134;-77
2021/03/03 05:31:27;;;;;;;51.07;27.37;;;;;;;;;;4391450;32;20498;-77
2021/03/03 05:33:52;;;;;;;49.10;27.07;;;;;;;;;;4390244;32;20181;-78
2021/03/03 05:36:17;;;;;;;52.03;28.03;;;;;;;;;;4390622;32;20212;-78
2021/03/03 05:38:43;;;;;;;60.27;29.33;;;;;;;;;;4391945;32;20213;-78
2021/03/03 05:41:09;;;;;;;54.20;27.23;;;;;;;;;;4390086;32;20170;-74
2021/03/03 05:43:34;;;;;;;60.90;29.53;;;;;;;;;;4391601;32;20142;-77
2021/03/03 05:46:00;;;;;;;61.30;30.33;;;;;;;;;;4390057;32;20214;-76
2021/03/03 05:48:31;;;;;;;66.80;30.90;;;;;;;;;;4391920;32;20186;-78
2021/03/03 05:50:57;;;;;;;65.87;30.87;;;;;;;;;;4392088;32;20139;-77
2021/03/03 05:53:23;;;;;;;59.77;28.27;;;;;;;;;;4391386;32;20511;-77
2021/03/03 05:55:49;;;;;;;59.37;29.27;;;;;;;;;;4390544;32;20196;-77
2021/03/03 05:58:15;;;;;;;59.80;29.33;;;;;;;;;;4389957;32;20171;-76
2021/03/03 06:00:40;;;;;;;61.47;29.63;;;;;;;;;;4391922;32;20164;-77
2021/03/03 06:03:06;;;;;;;59.50;28.23;;;;;;;;;;4389798;32;20179;-79
2021/03/03 06:05:34;;;;;;;64.70;29.90;;;;;;;;;;4390920;32;20165;-77
2021/03/03 06:08:00;;;;;;;62.27;28.20;;;;;;;;;;4391286;32;20202;-79
2021/03/03 06:10:25;;;;;;;65.47;30.97;;;;;;;;;;4389310;32;20162;-78
2021/03/03 06:12:50;;;;;;;64.23;29.47;;;;;;;;;;4390075;32;20170;-78
2021/03/03 06:15:16;;;;;;;60.33;28.63;;;;;;;;;;4390090;32;20170;-77
2021/03/03 06:17:42;;;;;;;71.20;31.97;;;;;;;;;;4390733;32;20205;-78
2021/03/03 06:20:07;;;;;;;62.50;30.37;;;;;;;;;;4391406;32;20173;-77
2021/03/03 06:22:32;;;;;;;61.60;29.13;;;;;;;;;;4389894;32;20167;-77
2021/03/03 06:24:58;;;;;;;50.50;26.63;;;;;;;;;;4405708;32;20158;-75
2021/03/03 06:27:24;;;;;;;49.27;26.37;;;;;;;;;;4406044;32;20202;-76
2021/03/03 06:30:03;;;;;;;57.30;26.40;;;;;;;;;;4405630;32;20196;-77
2021/03/03 06:32:28;;;;;;;49.97;26.67;;;;;;;;;;4406419;32;20154;-77
2021/03/03 06:34:54;;;;;;;54.60;25.57;;;;;;;;;;4391807;32;20226;-77
2021/03/03 06:37:19;;;;;;;50.17;23.50;;;;;;;;;;4405831;32;20138;-75
2021/03/03 06:39:44;;;;;;;51.53;25.43;;;;;;;;;;4391648;32;20583;-78
2021/03/03 06:42:11;;;;;;;107.03;27.23;;;;;;;;;;4405672;32;20142;-75
2021/03/03 06:44:46;;;;;;;47.77;24.37;;;;;;;;;;4405367;32;20267;-77
2021/03/03 06:47:20;;;;;;;45.30;23.60;;;;;;;;;;4391880;32;20166;-74
2021/03/03 06:49:46;;;;;;;48.27;23.87;;;;;;;;;;4392112;32;20158;-77
2021/03/03 06:52:11;;;;;;;41.07;21.80;;;;;;;;;;4405254;32;20455;-77
2021/03/03 06:54:36;;;;;;;48.30;24.10;;;;;;;;;;4391850;32;20209;-77
2021/03/03 06:57:07;;;;;;;36.97;19.70;;;;;;;;;;4405662;32;20164;-77
2021/03/03 06:59:33;;;;;;;33.73;18.60;;;;;;;;;;4405489;32;20146;-78
2021/03/03 07:01:59;;;;;;;37.97;18.10;;;;;;;;;;4405763;32;20160;-77
2021/03/03 07:04:26;;;;;;;29.53;16.67;;;;;;;;;;4403911;32;20190;-77
2021/03/03 07:06:52;;;;;;;29.40;16.13;;;;;;;;;;4405781;32;20143;-77
2021/03/03 07:09:17;;;;;;;24.10;13.50;;;;;;;;;;4405643;32;20591;-73
2021/03/03 07:11:43;;;;;;;24.40;14.33;;;;;;;;;;4405210;32;20142;-77
2021/03/03 07:14:17;;;;;;;28.93;14.70;;;;;;;;;;4405111;32;20142;-78
2021/03/03 07:17:01;;;;;;;23.50;14.77;;;;;;;;;;4405536;32;20193;-77
2021/03/03 07:19:26;;;;;;;23.20;13.77;;;;;;;;;;4403426;32;20873;-73
2021/03/03 07:21:52;;;;;;;26.17;14.37;;;;;;;;;;4398753;32;20301;-77
2021/03/03 07:24:17;;;;;;;22.83;14.13;;;;;;;;;;4388108;32;20205;-73
2021/03/03 07:26:44;;;;;;;27.77;14.60;;;;;;;;;;4388641;32;20213;-76
2021/03/03 07:29:10;;;;;;;25.40;15.00;;;;;;;;;;4401543;32;20177;-75
2021/03/03 07:31:36;;;;;;;28.57;15.73;;;;;;;;;;4384288;32;20319;-74
2021/03/03 07:34:01;;;;;;;28.93;15.93;;;;;;;;;;4418538;32;20149;-75
2021/03/03 07:36:27;;;;;;;32.67;17.27;;;;;;;;;;4420301;32;20177;-76
2021/03/03 07:38:53;;;;;;;32.20;17.23;;;;;;;;;;4419971;32;20588;-77
2021/03/03 07:41:19;;;;;;;31.43;16.63;;;;;;;;;;4420197;32;20168;-77
2021/03/03 07:43:48;;;;;;;34.23;17.53;;;;;;;;;;4390110;32;20150;-74
2021/03/03 07:46:13;;;;;;;30.77;16.30;;;;;;;;;;4395554;32;20150;-79
2021/03/03 07:48:40;;;;;;;25.30;15.20;;;;;;;;;;4388778;32;20525;-76
2021/03/03 07:51:07;;;;;;;37.07;17.07;;;;;;;;;;4390421;32;20169;-79
2021/03/03 07:53:37;;;;;;;28.80;15.93;;;;;;;;;;4404170;32;20196;-73
2021/03/03 07:56:06;;;;;;;42.87;17.87;;;;;;;;;;4390536;32;20170;-78
2021/03/03 07:58:31;;;;;;;39.60;15.47;;;;;;;;;;4404539;32;20142;-78
2021/03/03 08:00:57;;;;;;;34.60;17.17;;;;;;;;;;4390355;32;20574;-75
2021/03/03 08:03:42;;;;;;;35.83;17.87;;;;;;;;;;4390648;32;20608;-77
2021/03/03 08:06:28;;;;;;;42.87;18.77;;;;;;;;;;4393639;32;20739;-77
2021/03/03 08:09:10;;;;;;;28.73;16.57;;;;;;;;;;4394157;32;20205;-79
2021/03/03 08:11:42;;;;;;;37.83;19.87;;;;;;;;;;4378405;32;20231;-76
2021/03/03 08:14:26;;;;;;;32.17;18.47;;;;;;;;;;4380967;32;20251;-75
2021/03/03 08:17:12;;;;;;;37.17;19.83;;;;;;;;;;4393899;32;20199;-76
2021/03/03 08:19:50;;;;;;;43.03;19.37;;;;;;;;;;4380536;32;20259;-77
2021/03/03 08:22:15;;;;;;;31.00;16.53;;;;;;;;;;4378769;32;20212;-75
2021/03/03 08:24:40;;;;;;;33.80;17.52;;;;;;;;;;4391277;32;20173;-75
2021/03/03 08:27:13;;;;;;;30.17;17.40;;;;;;;;;;4405797;32;20177;-78
2021/03/03 08:29:39;;;;;;;33.43;18.17;;;;;;;;;;4386353;32;20601;-77
2021/03/03 08:32:28;;;;;;;34.87;19.17;;;;;;;;;;4391584;32;20193;-77
2021/03/03 08:34:54;;;;;;;38.83;18.73;;;;;;;;;;4385132;32;20215;-79
2021/03/03 08:37:26;;;;;;;57.53;20.80;;;;;;;;;;4407652;32;20138;-74
2021/03/03 08:39:52;;;;;;;36.00;19.00;;;;;;;;;;4407369;32;20417;-76
2021/03/03 08:42:31;;;;;;;91.67;23.27;;;;;;;;;;4401653;32;20212;-75
2021/03/03 08:44:57;;;;;;;119.83;27.60;;;;;;;;;;4405053;32;20153;-78
2021/03/03 08:47:42;;;;;;;90.33;24.37;;;;;;;;;;4406338;32;20155;-76
2021/03/03 08:50:26;;;;;;;56.07;24.17;;;;;;;;;;4393371;32;20257;-77
2021/03/03 08:53:16;;;;;;;36.17;19.93;;;;;;;;;;4407166;32;20146;-78
2021/03/03 08:55:42;;;;;;;64.80;24.23;;;;;;;;;;4407176;32;20192;-78
2021/03/03 08:58:27;;;;;;;41.70;21.93;;;;;;;;;;4389967;32;20237;-79
2021/03/03 09:00:52;;;;;;;45.20;23.47;;;;;;;;;;4397272;32;20208;-77
2021/03/03 09:03:18;;;;;;;49.77;24.77;;;;;;;;;;4406523;32;20145;-76
2021/03/03 09:05:44;;;;;;;90.23;27.53;;;;;;;;;;4406702;32;20494;-78
2021/03/03 09:08:20;;;;;;;43.43;22.73;;;;;;;;;;4406746;32;20143;-77
2021/03/03 09:10:46;;;;;;;59.50;24.40;;;;;;;;;;4407174;32;20129;-78
2021/03/03 09:13:21;;;;;;;40.13;22.83;;;;;;;;;;4406799;32;20180;-76
2021/03/03 09:16:05;;;;;;;61.90;25.43;;;;;;;;;;4405805;32;20142;-78
2021/03/03 09:18:30;;;;;;;65.27;25.60;;;;;;;;;;4407018;32;20201;-73
2021/03/03 09:21:09;;;;;;;49.70;25.27;;;;;;;;;;4393375;32;20188;-74
2021/03/03 09:23:35;;;;;;;43.40;23.63;;;;;;;;;;4391686;32;20165;-71
2021/03/03 09:26:01;;;;;;;39.80;23.53;;;;;;;;;;4391785;32;20180;-71
2021/03/03 09:28:37;;;;;;;55.30;26.63;;;;;;;;;;4395126;32;20728;-72
2021/03/03 09:31:02;;;;;;;67.97;26.37;;;;;;;;;;4390198;32;20493;-72
2021/03/03 09:33:27;;;;;;;70.23;28.27;;;;;;;;;;4377307;32;20220;-77
2021/03/03 09:35:52;;;;;;;47.97;27.17;;;;;;;;;;4391408;32;20130;-77
2021/03/03 09:38:18;;;;;;;65.60;27.10;;;;;;;;;;4392041;32;20238;-77
2021/03/03 09:40:43;;;;;;;48.33;26.73;;;;;;;;;;4377520;32;20487;-79
2021/03/03 09:43:14;;;;;;;79.87;28.27;;;;;;;;;;4406233;32;20184;-73
2021/03/03 09:45:39;;;;;;;51.60;26.77;;;;;;;;;;4404800;32;20162;-74
2021/03/03 09:48:04;;;;;;;49.93;26.60;;;;;;;;;;4404274;32;20654;-78
2021/03/03 09:50:30;;;;;;;50.60;27.13;;;;;;;;;;4405304;32;20161;-74
2021/03/03 09:52:56;;;;;;;53.20;27.23;;;;;;;;;;4406073;32;20556;-77
2021/03/03 09:55:22;;;;;;;49.30;27.73;;;;;;;;;;4405331;32;20180;-76
2021/03/03 09:57:51;;;;;;;51.00;27.53;;;;;;;;;;4405003;32;20251;-76
2021/03/03 10:00:17;;;;;;;55.23;28.87;;;;;;;;;;4404440;32;20166;-75
2021/03/03 10:03:05;;;;;;;63.00;30.80;;;;;;;;;;4404683;32;20223;-77
2021/03/03 10:05:31;;;;;;;48.77;27.17;;;;;;;;;;4405823;32;20146;-77
2021/03/03 10:08:01;;;;;;;56.60;27.13;;;;;;;;;;4404659;32;20216;-78
2021/03/03 10:10:27;;;;;;;59.00;29.53;;;;;;;;;;4404518;32;20158;-77
2021/03/03 10:12:52;;;;;;;58.80;29.30;;;;;;;;;;4394054;32;20271;-76
2021/03/03 10:15:37;;;;;;;65.17;31.60;;;;;;;;;;4389022;32;20173;-78
2021/03/03 10:18:07;;;;;;;59.90;31.97;;;;;;;;;;4374321;32;20163;-74
2021/03/03 10:20:39;;;;;;;58.20;31.27;;;;;;;;;;4374583;32;20197;-80
2021/03/03 10:23:09;;;;;;;60.90;31.90;;;;;;;;;;4374728;32;20182;-75
2021/03/03 10:25:38;;;;;;;53.30;29.30;;;;;;;;;;4376023;32;20166;-79
2021/03/03 10:28:23;;;;;;;66.63;32.53;;;;;;;;;;4394108;32;20555;-76
2021/03/03 10:30:50;;;;;;;62.97;31.70;;;;;;;;;;4405076;32;20539;-78
2021/03/03 10:33:25;;;;;;;62.03;32.97;;;;;;;;;;4391184;32;20587;-78
2021/03/03 10:35:51;;;;;;;60.03;31.67;;;;;;;;;;4404226;32;20181;-76
2021/03/03 10:38:20;;;;;;;62.87;32.70;;;;;;;;;;4404138;32;20162;-78
2021/03/03 10:40:46;;;;;;;67.90;34.07;;;;;;;;;;4404478;32;20226;-79
2021/03/03 10:43:15;;;;;;;69.63;34.00;;;;;;;;;;4402503;32;20449;-77
2021/03/03 10:45:42;;;;;;;68.67;33.90;;;;;;;;;;4386332;32;20605;-76
2021/03/03 10:48:08;;;;;;;67.80;31.80;;;;;;;;;;4394854;32;20200;-78
2021/03/03 10:50:48;;;;;;;70.00;36.43;;;;;;;;;;4383828;32;20705;-79
2021/03/03 10:53:14;;;;;;;77.47;35.87;;;;;;;;;;4394609;32;20176;-80
2021/03/03 10:55:41;;;;;;;66.93;34.23;;;;;;;;;;4402691;32;20170;-76
2021/03/03 10:58:08;;;;;;;69.13;33.70;;;;;;;;;;4404904;32;20605;-77
2021/03/03 11:00:55;;;;;;;65.07;34.00;;;;;;;;;;4391353;32;20158;-78
2021/03/03 11:03:20;;;;;;;55.63;31.03;;;;;;;;;;4375910;32;20524;-77
2021/03/03 11:05:49;;;;;;;62.23;33.17;;;;;;;;;;4388266;32;20158;-78
2021/03/03 11:08:15;;;;;;;67.20;33.40;;;;;;;;;;4390140;32;20201;-79
2021/03/03 11:10:40;;;;;;;59.80;30.93;;;;;;;;;;4375963;32;20208;-78
2021/03/03 11:13:05;;;;;;;68.57;34.23;;;;;;;;;;4388479;32;20541;-78
2021/03/03 11:15:30;;;;;;;65.43;33.37;;;;;;;;;;4388449;32;20178;-80
2021/03/03 11:18:05;;;;;;;64.70;31.97;;;;;;;;;;4388480;32;20170;-80
2021/03/03 11:20:33;;;;;;;57.13;30.77;;;;;;;;;;4388616;32;20161;-79
2021/03/03 11:23:01;;;;;;;66.27;31.53;;;;;;;;;;4375707;32;20198;-76
2021/03/03 11:25:26;;;;;;;61.37;31.67;;;;;;;;;;4408025;32;20181;-80
2021/03/03 11:27:57;;;;;;;62.23;31.20;;;;;;;;;;4403144;32;20579;-79
2021/03/03 11:30:22;;;;;;;65.60;32.03;;;;;;;;;;4402905;32;20215;-76
2021/03/03 11:32:49;;;;;;;59.53;30.77;;;;;;;;;;4403528;32;20194;-79
2021/03/03 11:35:15;;;;;;;58.90;30.27;;;;;;;;;;4403322;32;20161;-79
2021/03/03 11:37:40;;;;;;;55.30;28.25;;;;;;;;;;4404652;32;20455;-79
2021/03/03 11:40:05;;;;;;;60.60;31.37;;;;;;;;;;4403125;32;20173;-79
2021/03/03 11:42:51;;;;;;;;;;;;;;;;;;;;;
2021/03/03 11:45:20;;;;;;;51.70;27.87;;;;;;;;;;4405184;32;20503;-80
2021/03/03 11:48:05;;;;;;;52.35;28.38;;;;;;;;;;4405333;32;20130;-80
2021/03/03 11:50:33;;;;;;;49.60;26.85;;;;;;;;;;4403903;32;20583;-79
2021/03/03 11:52:58;;;;;;;49.85;27.80;;;;;;;;;;4405164;32;20145;-79
2021/03/03 11:55:26;;;;;;;49.75;27.92;;;;;;;;;;4403445;32;20165;-79
2021/03/03 11:57:55;;;;;;;47.88;29.55;;;;;;;;;;4403556;32;20162;-80
2021/03/03 12:00:20;;;;;;;53.20;28.38;;;;;;;;;;4403202;32;20162;-80
2021/03/03 12:02:59;;;;;;;51.67;28.80;;;;;;;;;;4403353;32;20491;-79
2021/03/03 12:05:24;;;;;;;49.03;26.67;;;;;;;;;;4403673;32;20153;-79
2021/03/03 12:07:50;;;;;;;52.60;28.05;;;;;;;;;;4403105;32;20192;-79
2021/03/03 12:10:15;;;;;;;53.42;30.75;;;;;;;;;;4403384;32;20170;-77
2021/03/03 12:12:41;;;;;;;53.50;30.15;;;;;;;;;;4403110;32;20166;-78
2021/03/03 12:15:07;;;;;;;55.20;29.02;;;;;;;;;;4403315;32;20217;-79
2021/03/03 12:17:35;;;;;;;50.38;28.83;;;;;;;;;;4404476;32;20181;-80
2021/03/03 12:20:12;;;;;;;48.15;28.25;;;;;;;;;;4403144;32;20162;-80
2021/03/03 12:22:38;;;;;;;53.40;29.10;;;;;;;;;;4403138;32;20180;-77
2021/03/03 12:25:03;;;;;;;52.88;28.00;;;;;;;;;;4403055;32;20284;-78
2021/03/03 12:27:35;;;;;;;52.53;29.23;;;;;;;;;;4403130;32;20214;-79
2021/03/03 12:30:00;;;;;;;44.10;27.48;;;;;;;;;;4390842;32;20162;-77
2021/03/03 12:32:26;;;;;;;52.05;29.37;;;;;;;;;;4390415;32;20605;-78
2021/03/03 12:34:58;;;;;;;44.10;27.30;;;;;;;;;;4390665;32;20162;-80
2021/03/03 12:37:26;;;;;;;52.88;28.00;;;;;;;;;;4390538;32;20185;-78
2021/03/03 12:39:52;;;;;;;51.97;29.25;;;;;;;;;;4390818;32;20552;-79
2021/03/03 12:42:17;;;;;;;51.20;29.10;;;;;;;;;;4390443;32;20193;-79
2021/03/03 12:44:43;;;;;;;48.90;28.52;;;;;;;;;;4390679;32;20225;-81
2021/03/03 12:47:13;;;;;;;51.55;29.23;;;;;;;;;;4390312;32;20154;-77
2021/03/03 12:49:39;;;;;;;52.42;30.45;;;;;;;;;;4390464;32;20217;-79
2021/03/03 12:52:04;;;;;;;51.17;30.52;;;;;;;;;;4392603;32;20674;-80
2021/03/03 12:54:30;;;;;;;60.33;30.75;;;;;;;;;;4407694;32;20162;-78
2021/03/03 12:56:55;;;;;;;52.67;31.92;;;;;;;;;;4393030;32;20227;-78
2021/03/03 12:59:38;;;;;;;50.40;29.48;;;;;;;;;;4406598;32;20135;-79
2021/03/03 13:02:03;;;;;;;48.35;28.70;;;;;;;;;;4393580;32;20640;-77
2021/03/03 13:04:29;;;;;;;48.60;28.98;;;;;;;;;;4393336;32;20178;-79
2021/03/03 13:06:54;;;;;;;52.58;30.40;;;;;;;;;;4393206;32;20490;-79
2021/03/03 13:09:22;;;;;;;47.00;28.62;;;;;;;;;;4392719;32;20221;-79
2021/03/03 13:11:48;;;;;;;46.90;28.45;;;;;;;;;;4399478;32;20153;-79
2021/03/03 13:14:14;;;;;;;48.17;29.00;;;;;;;;;;4393001;32;20166;-81
2021/03/03 13:16:42;;;;;;;46.85;30.30;;;;;;;;;;4392635;32;20193;-79
2021/03/03 13:19:10;;;;;;;46.42;27.37;;;;;;;;;;4388129;32;20170;-80
2021/03/03 13:21:52;;;;;;;46.50;29.48;;;;;;;;;;4392461;32;20619;-77
2021/03/03 13:24:54;;;;;;;47.53;29.63;;;;;;;;;;4406069;32;20599;-80
2021/03/03 13:27:43;;;;;;;48.55;29.23;;;;;;;;;;4392618;32;20193;-79
2021/03/03 13:30:25;;;;;;;;;;;;;;;;;;;;;
2021/03/03 13:32:51;;;;;;;46.88;30.40;;;;;;;;;;4406858;32;20566;-80
2021/03/03 13:35:19;;;;;;;54.67;33.53;;;;;;;;;;4392901;32;20180;-80
2021/03/03 13:37:44;;;;;;;55.47;31.15;;;;;;;;;;4392674;32;20197;-79
2021/03/03 13:40:11;;;;;;;47.78;29.08;;;;;;;;;;4392487;32;20177;-80
2021/03/03 13:42:39;;;;;;;51.85;31.35;;;;;;;;;;4388978;32;20289;-80
2021/03/03 13:45:05;;;;;;;49.53;28.77;;;;;;;;;;4391164;32;20564;-80
2021/03/03 13:47:35;;;;;;;50.47;29.33;;;;;;;;;;4381697;32;20178;-80
2021/03/03 13:50:21;;;;;;;51.97;29.17;;;;;;;;;;4377008;32;20237;-80
2021/03/03 13:52:46;;;;;;;52.13;31.77;;;;;;;;;;4377943;32;20154;-79
2021/03/03 13:55:24;;;;;;;54.85;32.10;;;;;;;;;;4377514;32;20625;-80
2021/03/03 13:57:49;;;;;;;49.22;29.30;;;;;;;;;;4391401;32;20504;-80
2021/03/03 14:00:21;;;;;;;55.53;29.83;;;;;;;;;;4377015;32;20162;-78
2021/03/03 14:02:47;;;;;;;53.15;31.73;;;;;;;;;;4377007;32;20173;-79
2021/03/03 14:05:16;;;;;;;51.35;28.73;;;;;;;;;;4377076;32;20150;-78
2021/03/03 14:07:41;;;;;;;56.30;32.03;;;;;;;;;;4378008;32;20491;-79
2021/03/03 14:10:06;;;;;;;55.88;31.37;;;;;;;;;;4392080;32;20150;-79
2021/03/03 14:12:35;;;;;;;57.13;30.77;;;;;;;;;;4392050;32;20165;-79
2021/03/03 14:15:00;;;;;;;57.10;32.63;;;;;;;;;;4391937;32;20150;-79
2021/03/03 14:17:25;;;;;;;50.65;28.85;;;;;;;;;;4391889;32;20181;-80
2021/03/03 14:19:53;;;;;;;57.70;30.95;;;;;;;;;;4391823;32;20169;-80
2021/03/03 14:22:23;;;;;;;51.97;28.70;;;;;;;;;;4391600;32;20197;-80
2021/03/03 14:24:48;;;;;;;49.55;29.30;;;;;;;;;;4391792;32;20273;-80